sensor_id;sensor_type;location;lat;lon;timestamp;pressure;altitude;pressure_sealevel;temperature;humidity
24154;BME280;12312;53.362;-1.518;2023-01-25T00:01:34;101104.72;;;5.48;100.00
24154;BME280;12312;53.362;-1.518;2023-01-25T00:04:00;101099.41;;;5.49;100.00
24154;BME280;12312;53.362;-1.518;2023-01-25T00:06:26;101090.72;;;5.44;100.00
24154;BME280;12312;53.362;-1.518;2023-01-25T00:08:52;101092.56;;;5.39;100.00
24154;BME280;12312;53.362;-1.518;2023-01-25T00:11:18;101088.22;;;5.38;100.00
24154;BME280;12312;53.362;-1.518;2023-01-25T00:13:44;101087.22;;;5.42;100.00
24154;BME280;12312;53.362;-1.518;2023-01-25T00:16:10;101080.09;;;5.47;100.00
24154;BME280;12312;53.362;-1.518;2023-01-25T00:18:36;101086.41;;;5.40;100.00
24154;BME280;12312;53.362;-1.518;2023-01-25T00:21:15;101083.63;;;5.46;100.00
24154;BME280;12312;53.362;-1.518;2023-01-25T00:23:41;101074.66;;;5.53;100.00
24154;BME280;12312;53.362;-1.518;2023-01-25T00:26:07;101082.75;;;5.46;100.00
24154;BME280;12312;53.362;-1.518;2023-01-25T00:28:33;101081.72;;;5.53;100.00
24154;BME280;12312;53.362;-1.518;2023-01-25T00:31:03;101073.94;;;5.47;100.00
24154;BME280;12312;53.362;-1.518;2023-01-25T00:33:39;101080.91;;;5.51;100.00
24154;BME280;12312;53.362;-1.518;2023-01-25T00:38:55;101072.31;;;5.41;100.00
24154;BME280;12312;53.362;-1.518;2023-01-25T00:41:21;101073.47;;;5.28;100.00
24154;BME280;12312;53.362;-1.518;2023-01-25T00:43:48;101075.19;;;5.31;100.00
24154;BME280;12312;53.362;-1.518;2023-01-25T00:46:15;101071.78;;;5.24;100.00
24154;BME280;12312;53.362;-1.518;2023-01-25T00:48:42;101084.09;;;5.25;100.00
24154;BME280;12312;53.362;-1.518;2023-01-25T00:51:07;101079.88;;;5.17;100.00
24154;BME280;12312;53.362;-1.518;2023-01-25T00:53:34;101082.50;;;5.17;100.00
24154;BME280;12312;53.362;-1.518;2023-01-25T00:56:00;101083.41;;;5.16;100.00
24154;BME280;12312;53.362;-1.518;2023-01-25T00:58:25;101081.72;;;5.13;100.00
24154;BME280;12312;53.362;-1.518;2023-01-25T01:00:52;101079.84;;;5.18;100.00
24154;BME280;12312;53.362;-1.518;2023-01-25T01:03:18;101077.31;;;5.12;100.00
24154;BME280;12312;53.362;-1.518;2023-01-25T01:05:44;101071.91;;;5.18;100.00
24154;BME280;12312;53.362;-1.518;2023-01-25T01:08:11;101065.09;;;5.08;100.00
24154;BME280;12312;53.362;-1.518;2023-01-25T01:10:38;101066.91;;;5.06;100.00
24154;BME280;12312;53.362;-1.518;2023-01-25T01:13:03;101060.53;;;5.18;100.00
24154;BME280;12312;53.362;-1.518;2023-01-25T01:15:29;101058.78;;;5.15;100.00
24154;BME280;12312;53.362;-1.518;2023-01-25T01:17:55;101068.56;;;5.10;100.00
24154;BME280;12312;53.362;-1.518;2023-01-25T01:20:20;101064.16;;;5.11;100.00
24154;BME280;12312;53.362;-1.518;2023-01-25T01:22:46;101070.38;;;5.08;100.00
24154;BME280;12312;53.362;-1.518;2023-01-25T01:25:12;101060.78;;;5.04;100.00
24154;BME280;12312;53.362;-1.518;2023-01-25T01:27:39;101057.34;;;5.01;100.00
24154;BME280;12312;53.362;-1.518;2023-01-25T01:30:05;101054.69;;;5.02;100.00
24154;BME280;12312;53.362;-1.518;2023-01-25T01:32:31;101051.25;;;4.97;100.00
24154;BME280;12312;53.362;-1.518;2023-01-25T01:34:56;101057.44;;;4.96;100.00
24154;BME280;12312;53.362;-1.518;2023-01-25T01:37:22;101052.94;;;5.01;100.00
24154;BME280;12312;53.362;-1.518;2023-01-25T01:39:47;101049.38;;;5.04;100.00
24154;BME280;12312;53.362;-1.518;2023-01-25T01:42:13;101042.50;;;4.95;100.00
24154;BME280;12312;53.362;-1.518;2023-01-25T01:44:44;101032.41;;;5.15;100.00
24154;BME280;12312;53.362;-1.518;2023-01-25T01:47:21;101037.94;;;5.03;100.00
24154;BME280;12312;53.362;-1.518;2023-01-25T01:49:54;101038.78;;;5.05;100.00
24154;BME280;12312;53.362;-1.518;2023-01-25T01:52:28;101035.69;;;5.26;100.00
24154;BME280;12312;53.362;-1.518;2023-01-25T01:55:00;101030.50;;;5.22;100.00
24154;BME280;12312;53.362;-1.518;2023-01-25T01:57:46;101032.00;;;5.33;100.00
24154;BME280;12312;53.362;-1.518;2023-01-25T02:02:42;101018.41;;;5.13;100.00
24154;BME280;12312;53.362;-1.518;2023-01-25T02:05:11;101020.25;;;5.08;100.00
24154;BME280;12312;53.362;-1.518;2023-01-25T02:07:41;101022.97;;;5.05;100.00
24154;BME280;12312;53.362;-1.518;2023-01-25T02:10:10;101015.50;;;5.25;100.00
24154;BME280;12312;53.362;-1.518;2023-01-25T02:12:37;101021.84;;;5.15;100.00
24154;BME280;12312;53.362;-1.518;2023-01-25T02:15:04;101029.09;;;5.06;100.00
24154;BME280;12312;53.362;-1.518;2023-01-25T02:17:33;101028.66;;;5.27;100.00
24154;BME280;12312;53.362;-1.518;2023-01-25T02:25:54;101021.16;;;5.45;100.00
24154;BME280;12312;53.362;-1.518;2023-01-25T02:28:31;101016.16;;;5.33;100.00
24154;BME280;12312;53.362;-1.518;2023-01-25T02:31:00;101006.44;;;5.35;100.00
24154;BME280;12312;53.362;-1.518;2023-01-25T02:33:29;101010.66;;;5.42;100.00
24154;BME280;12312;53.362;-1.518;2023-01-25T02:36:14;101014.13;;;5.46;100.00
24154;BME280;12312;53.362;-1.518;2023-01-25T02:38:48;101013.16;;;5.48;100.00
24154;BME280;12312;53.362;-1.518;2023-01-25T02:41:41;101007.19;;;5.42;100.00
24154;BME280;12312;53.362;-1.518;2023-01-25T02:44:30;101007.44;;;5.31;100.00
24154;BME280;12312;53.362;-1.518;2023-01-25T02:47:16;101010.59;;;5.45;100.00
24154;BME280;12312;53.362;-1.518;2023-01-25T02:49:42;101006.91;;;5.54;100.00
24154;BME280;12312;53.362;-1.518;2023-01-25T02:52:08;101005.03;;;5.57;100.00
24154;BME280;12312;53.362;-1.518;2023-01-25T02:54:35;101007.75;;;5.54;100.00
24154;BME280;12312;53.362;-1.518;2023-01-25T02:57:01;101013.38;;;5.39;100.00
24154;BME280;12312;53.362;-1.518;2023-01-25T02:59:29;101006.69;;;5.25;100.00
24154;BME280;12312;53.362;-1.518;2023-01-25T03:01:56;101013.44;;;5.36;100.00
24154;BME280;12312;53.362;-1.518;2023-01-25T03:04:23;101015.28;;;5.34;100.00
24154;BME280;12312;53.362;-1.518;2023-01-25T03:06:49;101018.97;;;5.26;100.00
24154;BME280;12312;53.362;-1.518;2023-01-25T03:09:17;101011.94;;;5.26;100.00
24154;BME280;12312;53.362;-1.518;2023-01-25T03:14:52;101008.16;;;5.36;100.00
24154;BME280;12312;53.362;-1.518;2023-01-25T03:17:17;101008.25;;;5.33;100.00
24154;BME280;12312;53.362;-1.518;2023-01-25T03:19:43;101002.28;;;5.25;100.00
24154;BME280;12312;53.362;-1.518;2023-01-25T03:22:45;101011.88;;;5.29;100.00
24154;BME280;12312;53.362;-1.518;2023-01-25T03:25:11;101013.53;;;5.33;100.00
24154;BME280;12312;53.362;-1.518;2023-01-25T03:27:37;101011.66;;;5.38;100.00
24154;BME280;12312;53.362;-1.518;2023-01-25T03:30:03;101007.28;;;5.37;100.00
24154;BME280;12312;53.362;-1.518;2023-01-25T03:32:29;101001.03;;;5.41;100.00
24154;BME280;12312;53.362;-1.518;2023-01-25T03:34:54;101002.91;;;5.36;100.00
24154;BME280;12312;53.362;-1.518;2023-01-25T03:37:20;101004.00;;;5.26;100.00
24154;BME280;12312;53.362;-1.518;2023-01-25T03:39:46;100999.66;;;5.25;100.00
24154;BME280;12312;53.362;-1.518;2023-01-25T03:42:11;100990.53;;;5.38;100.00
24154;BME280;12312;53.362;-1.518;2023-01-25T03:44:38;100993.59;;;5.59;100.00
24154;BME280;12312;53.362;-1.518;2023-01-25T03:47:03;100996.03;;;5.66;100.00
24154;BME280;12312;53.362;-1.518;2023-01-25T03:49:29;100995.25;;;5.63;100.00
24154;BME280;12312;53.362;-1.518;2023-01-25T03:51:55;100988.31;;;5.59;100.00
24154;BME280;12312;53.362;-1.518;2023-01-25T03:54:22;100986.34;;;5.67;100.00
24154;BME280;12312;53.362;-1.518;2023-01-25T03:56:50;100988.22;;;5.62;100.00
24154;BME280;12312;53.362;-1.518;2023-01-25T03:59:20;100981.34;;;5.54;100.00
24154;BME280;12312;53.362;-1.518;2023-01-25T04:01:48;100979.16;;;5.72;100.00
24154;BME280;12312;53.362;-1.518;2023-01-25T04:04:15;100980.13;;;5.69;100.00
24154;BME280;12312;53.362;-1.518;2023-01-25T04:06:46;100977.22;;;5.80;100.00
24154;BME280;12312;53.362;-1.518;2023-01-25T04:09:15;100970.47;;;5.68;100.00
24154;BME280;12312;53.362;-1.518;2023-01-25T04:11:41;100976.16;;;5.87;100.00
24154;BME280;12312;53.362;-1.518;2023-01-25T04:14:06;100971.81;;;5.86;100.00
24154;BME280;12312;53.362;-1.518;2023-01-25T04:16:32;100966.94;;;5.68;100.00
24154;BME280;12312;53.362;-1.518;2023-01-25T04:19:00;100963.47;;;5.66;100.00
24154;BME280;12312;53.362;-1.518;2023-01-25T04:21:26;100965.16;;;5.70;100.00
24154;BME280;12312;53.362;-1.518;2023-01-25T04:23:51;100966.66;;;5.80;100.00
24154;BME280;12312;53.362;-1.518;2023-01-25T04:26:17;100970.22;;;5.79;100.00
24154;BME280;12312;53.362;-1.518;2023-01-25T04:28:43;100953.72;;;5.69;100.00
24154;BME280;12312;53.362;-1.518;2023-01-25T04:31:08;100963.78;;;5.53;100.00
24154;BME280;12312;53.362;-1.518;2023-01-25T04:33:34;100961.63;;;5.69;100.00
24154;BME280;12312;53.362;-1.518;2023-01-25T04:36:00;100954.22;;;5.85;100.00
24154;BME280;12312;53.362;-1.518;2023-01-25T04:38:25;100950.66;;;5.86;100.00
24154;BME280;12312;53.362;-1.518;2023-01-25T04:40:51;100952.50;;;5.82;100.00
24154;BME280;12312;53.362;-1.518;2023-01-25T04:43:18;100951.16;;;5.66;100.00
24154;BME280;12312;53.362;-1.518;2023-01-25T04:45:44;100950.75;;;5.83;100.00
24154;BME280;12312;53.362;-1.518;2023-01-25T04:48:11;100950.78;;;5.80;100.00
24154;BME280;12312;53.362;-1.518;2023-01-25T04:50:41;100941.50;;;5.65;100.00
24154;BME280;12312;53.362;-1.518;2023-01-25T04:53:08;100932.97;;;5.54;100.00
24154;BME280;12312;53.362;-1.518;2023-01-25T04:55:35;100940.09;;;5.50;100.00
24154;BME280;12312;53.362;-1.518;2023-01-25T04:58:01;100928.69;;;5.48;100.00
24154;BME280;12312;53.362;-1.518;2023-01-25T05:00:29;100917.81;;;5.61;100.00
24154;BME280;12312;53.362;-1.518;2023-01-25T05:02:55;100917.50;;;5.74;100.00
24154;BME280;12312;53.362;-1.518;2023-01-25T05:05:21;100911.38;;;5.72;100.00
24154;BME280;12312;53.362;-1.518;2023-01-25T05:07:47;100905.53;;;5.60;100.00
24154;BME280;12312;53.362;-1.518;2023-01-25T05:10:12;100913.91;;;5.77;100.00
24154;BME280;12312;53.362;-1.518;2023-01-25T05:12:38;100894.41;;;5.47;100.00
24154;BME280;12312;53.362;-1.518;2023-01-25T05:15:04;100887.72;;;5.68;100.00
24154;BME280;12312;53.362;-1.518;2023-01-25T05:17:30;100883.28;;;5.70;100.00
24154;BME280;12312;53.362;-1.518;2023-01-25T05:19:55;100884.47;;;5.57;100.00
24154;BME280;12312;53.362;-1.518;2023-01-25T05:22:22;100891.28;;;5.67;100.00
24154;BME280;12312;53.362;-1.518;2023-01-25T05:24:48;100890.72;;;5.54;100.00
24154;BME280;12312;53.362;-1.518;2023-01-25T05:27:17;100893.06;;;5.31;100.00
24154;BME280;12312;53.362;-1.518;2023-01-25T05:29:43;100897.38;;;4.97;100.00
24154;BME280;12312;53.362;-1.518;2023-01-25T05:34:40;100898.13;;;5.03;100.00
24154;BME280;12312;53.362;-1.518;2023-01-25T05:37:08;100888.97;;;5.19;100.00
24154;BME280;12312;53.362;-1.518;2023-01-25T05:39:35;100883.69;;;5.19;100.00
24154;BME280;12312;53.362;-1.518;2023-01-25T05:42:01;100874.97;;;5.51;100.00
24154;BME280;12312;53.362;-1.518;2023-01-25T05:44:28;100879.59;;;5.41;100.00
24154;BME280;12312;53.362;-1.518;2023-01-25T05:46:53;100870.38;;;5.57;100.00
24154;BME280;12312;53.362;-1.518;2023-01-25T05:49:20;100881.25;;;5.45;100.00
24154;BME280;12312;53.362;-1.518;2023-01-25T05:51:46;100872.34;;;5.49;100.00
24154;BME280;12312;53.362;-1.518;2023-01-25T05:54:14;100872.03;;;5.62;100.00
24154;BME280;12312;53.362;-1.518;2023-01-25T05:56:41;100873.13;;;5.53;100.00
24154;BME280;12312;53.362;-1.518;2023-01-25T05:59:09;100876.69;;;5.52;100.00
24154;BME280;12312;53.362;-1.518;2023-01-25T06:01:37;100875.47;;;5.65;100.00
24154;BME280;12312;53.362;-1.518;2023-01-25T06:04:03;100880.94;;;5.57;100.00
24154;BME280;12312;53.362;-1.518;2023-01-25T06:06:28;100881.16;;;5.48;100.00
24154;BME280;12312;53.362;-1.518;2023-01-25T06:08:54;100881.38;;;5.04;100.00
24154;BME280;12312;53.362;-1.518;2023-01-25T06:11:22;100867.91;;;5.16;100.00
24154;BME280;12312;53.362;-1.518;2023-01-25T06:13:48;100878.09;;;5.31;100.00
24154;BME280;12312;53.362;-1.518;2023-01-25T06:16:16;100883.59;;;5.22;100.00
24154;BME280;12312;53.362;-1.518;2023-01-25T06:18:42;100877.72;;;5.11;100.00
24154;BME280;12312;53.362;-1.518;2023-01-25T06:21:09;100871.00;;;5.33;100.00
24154;BME280;12312;53.362;-1.518;2023-01-25T06:23:34;100869.19;;;5.35;100.00
24154;BME280;12312;53.362;-1.518;2023-01-25T06:26:02;100869.41;;;5.26;100.00
24154;BME280;12312;53.362;-1.518;2023-01-25T06:28:30;100865.41;;;5.45;100.00
24154;BME280;12312;53.362;-1.518;2023-01-25T06:31:02;100859.50;;;5.70;100.00
24154;BME280;12312;53.362;-1.518;2023-01-25T06:33:28;100869.38;;;5.97;100.00
24154;BME280;12312;53.362;-1.518;2023-01-25T06:35:58;100865.00;;;5.94;100.00
24154;BME280;12312;53.362;-1.518;2023-01-25T06:38:24;100866.72;;;5.97;100.00
24154;BME280;12312;53.362;-1.518;2023-01-25T06:40:49;100856.31;;;6.50;100.00
24154;BME280;12312;53.362;-1.518;2023-01-25T06:43:15;100858.34;;;6.42;100.00
24154;BME280;12312;53.362;-1.518;2023-01-25T06:45:40;100843.41;;;6.40;100.00
24154;BME280;12312;53.362;-1.518;2023-01-25T06:48:06;100848.22;;;6.84;100.00
24154;BME280;12312;53.362;-1.518;2023-01-25T06:50:32;100842.34;;;6.76;100.00
24154;BME280;12312;53.362;-1.518;2023-01-25T06:52:57;100835.88;;;7.12;100.00
24154;BME280;12312;53.362;-1.518;2023-01-25T06:55:23;100836.03;;;6.80;100.00
24154;BME280;12312;53.362;-1.518;2023-01-25T06:57:49;100827.97;;;6.55;100.00
24154;BME280;12312;53.362;-1.518;2023-01-25T07:00:15;100830.47;;;6.31;100.00
24154;BME280;12312;53.362;-1.518;2023-01-25T07:02:41;100834.34;;;6.19;100.00
24154;BME280;12312;53.362;-1.518;2023-01-25T07:05:08;100831.56;;;6.82;100.00
24154;BME280;12312;53.362;-1.518;2023-01-25T07:07:34;100821.53;;;6.64;100.00
24154;BME280;12312;53.362;-1.518;2023-01-25T07:09:59;100820.91;;;6.56;100.00
24154;BME280;12312;53.362;-1.518;2023-01-25T07:12:29;100825.66;;;6.45;100.00
24154;BME280;12312;53.362;-1.518;2023-01-25T07:14:55;100822.63;;;6.28;100.00
24154;BME280;12312;53.362;-1.518;2023-01-25T07:17:21;100828.09;;;6.22;100.00
24154;BME280;12312;53.362;-1.518;2023-01-25T07:19:48;100829.50;;;6.35;100.00
24154;BME280;12312;53.362;-1.518;2023-01-25T07:22:15;100815.75;;;6.51;100.00
24154;BME280;12312;53.362;-1.518;2023-01-25T07:24:42;100823.84;;;6.47;100.00
24154;BME280;12312;53.362;-1.518;2023-01-25T07:27:14;100823.09;;;6.42;100.00
24154;BME280;12312;53.362;-1.518;2023-01-25T07:29:40;100826.03;;;6.33;100.00
24154;BME280;12312;53.362;-1.518;2023-01-25T07:32:05;100815.53;;;6.30;100.00
24154;BME280;12312;53.362;-1.518;2023-01-25T07:34:31;100811.78;;;6.37;100.00
24154;BME280;12312;53.362;-1.518;2023-01-25T07:36:57;100808.44;;;6.32;100.00
24154;BME280;12312;53.362;-1.518;2023-01-25T07:39:23;100807.31;;;6.68;100.00
24154;BME280;12312;53.362;-1.518;2023-01-25T07:41:48;100797.81;;;6.61;100.00
24154;BME280;12312;53.362;-1.518;2023-01-25T07:44:14;100799.22;;;6.72;100.00
24154;BME280;12312;53.362;-1.518;2023-01-25T07:46:40;100791.53;;;6.65;100.00
24154;BME280;12312;53.362;-1.518;2023-01-25T07:49:05;100785.66;;;6.83;100.00
24154;BME280;12312;53.362;-1.518;2023-01-25T07:51:31;100779.91;;;6.96;100.00
24154;BME280;12312;53.362;-1.518;2023-01-25T07:53:59;100776.78;;;6.84;100.00
24154;BME280;12312;53.362;-1.518;2023-01-25T07:56:31;100777.09;;;6.75;100.00
24154;BME280;12312;53.362;-1.518;2023-01-25T07:58:58;100776.00;;;6.82;100.00
24154;BME280;12312;53.362;-1.518;2023-01-25T08:01:26;100770.81;;;6.79;100.00
24154;BME280;12312;53.362;-1.518;2023-01-25T08:03:53;100776.28;;;6.73;100.00
24154;BME280;12312;53.362;-1.518;2023-01-25T08:06:27;100763.50;;;6.85;100.00
24154;BME280;12312;53.362;-1.518;2023-01-25T08:08:57;100765.69;;;6.99;100.00
24154;BME280;12312;53.362;-1.518;2023-01-25T08:11:25;100748.50;;;6.86;100.00
24154;BME280;12312;53.362;-1.518;2023-01-25T08:13:52;100741.09;;;6.97;100.00
24154;BME280;12312;53.362;-1.518;2023-01-25T08:16:20;100733.72;;;7.05;100.00
24154;BME280;12312;53.362;-1.518;2023-01-25T08:18:50;100725.22;;;6.97;100.00
24154;BME280;12312;53.362;-1.518;2023-01-25T08:21:17;100727.22;;;7.15;100.00
24154;BME280;12312;53.362;-1.518;2023-01-25T08:23:43;100715.72;;;7.16;100.00
24154;BME280;12312;53.362;-1.518;2023-01-25T08:26:12;100703.19;;;7.21;100.00
24154;BME280;12312;53.362;-1.518;2023-01-25T08:28:38;100693.34;;;7.00;100.00
24154;BME280;12312;53.362;-1.518;2023-01-25T08:31:15;100692.25;;;7.05;100.00
24154;BME280;12312;53.362;-1.518;2023-01-25T08:33:41;100690.81;;;6.97;100.00
24154;BME280;12312;53.362;-1.518;2023-01-25T08:36:09;100694.72;;;6.85;100.00
24154;BME280;12312;53.362;-1.518;2023-01-25T08:38:36;100684.03;;;6.88;100.00
24154;BME280;12312;53.362;-1.518;2023-01-25T08:41:10;100678.41;;;6.97;100.00
24154;BME280;12312;53.362;-1.518;2023-01-25T08:43:36;100670.44;;;6.99;100.00
24154;BME280;12312;53.362;-1.518;2023-01-25T08:46:04;100659.94;;;6.96;100.00
24154;BME280;12312;53.362;-1.518;2023-01-25T08:48:30;100656.41;;;6.97;100.00
24154;BME280;12312;53.362;-1.518;2023-01-25T08:50:56;100668.38;;;7.07;100.00
24154;BME280;12312;53.362;-1.518;2023-01-25T08:53:22;100667.88;;;6.96;100.00
24154;BME280;12312;53.362;-1.518;2023-01-25T08:55:49;100670.31;;;7.02;100.00
24154;BME280;12312;53.362;-1.518;2023-01-25T08:58:15;100654.16;;;7.09;100.00
24154;BME280;12312;53.362;-1.518;2023-01-25T09:00:46;100649.91;;;7.05;100.00
24154;BME280;12312;53.362;-1.518;2023-01-25T09:03:11;100637.59;;;7.04;100.00
24154;BME280;12312;53.362;-1.518;2023-01-25T09:05:38;100650.03;;;7.02;100.00
24154;BME280;12312;53.362;-1.518;2023-01-25T09:08:07;100647.88;;;7.13;100.00
24154;BME280;12312;53.362;-1.518;2023-01-25T09:10:33;100647.03;;;7.11;100.00
24154;BME280;12312;53.362;-1.518;2023-01-25T09:12:59;100643.91;;;7.25;100.00
24154;BME280;12312;53.362;-1.518;2023-01-25T09:15:27;100637.59;;;7.29;100.00
24154;BME280;12312;53.362;-1.518;2023-01-25T09:17:53;100633.31;;;7.25;100.00
24154;BME280;12312;53.362;-1.518;2023-01-25T09:20:19;100633.09;;;7.31;100.00
24154;BME280;12312;53.362;-1.518;2023-01-25T09:25:55;100632.41;;;7.49;100.00
24154;BME280;12312;53.362;-1.518;2023-01-25T09:28:24;100620.91;;;7.50;100.00
24154;BME280;12312;53.362;-1.518;2023-01-25T09:30:56;100613.41;;;7.61;100.00
24154;BME280;12312;53.362;-1.518;2023-01-25T09:33:31;100607.84;;;7.46;100.00
24154;BME280;12312;53.362;-1.518;2023-01-25T09:35:59;100604.94;;;7.75;100.00
24154;BME280;12312;53.362;-1.518;2023-01-25T09:38:26;100593.50;;;7.51;100.00
24154;BME280;12312;53.362;-1.518;2023-01-25T09:46:36;100565.47;;;7.67;100.00
24154;BME280;12312;53.362;-1.518;2023-01-25T09:49:17;100559.84;;;7.76;100.00
24154;BME280;12312;53.362;-1.518;2023-01-25T09:52:02;100565.00;;;8.01;100.00
24154;BME280;12312;53.362;-1.518;2023-01-25T09:54:38;100560.31;;;8.07;100.00
24154;BME280;12312;53.362;-1.518;2023-01-25T09:57:39;100577.09;;;7.86;100.00
24154;BME280;12312;53.362;-1.518;2023-01-25T10:02:49;100571.78;;;7.86;100.00
24154;BME280;12312;53.362;-1.518;2023-01-25T10:05:21;100580.19;;;7.97;100.00
24154;BME280;12312;53.362;-1.518;2023-01-25T10:08:26;100588.53;;;8.08;100.00
24154;BME280;12312;53.362;-1.518;2023-01-25T10:11:06;100587.72;;;8.29;100.00
24154;BME280;12312;53.362;-1.518;2023-01-25T10:13:37;100600.47;;;8.41;100.00
24154;BME280;12312;53.362;-1.518;2023-01-25T10:16:06;100609.59;;;8.34;100.00
24154;BME280;12312;53.362;-1.518;2023-01-25T10:18:47;100621.16;;;8.33;100.00
24154;BME280;12312;53.362;-1.518;2023-01-25T10:21:40;100620.22;;;8.34;100.00
24154;BME280;12312;53.362;-1.518;2023-01-25T10:24:33;100632.34;;;8.18;100.00
24154;BME280;12312;53.362;-1.518;2023-01-25T10:27:21;100623.56;;;8.16;100.00
24154;BME280;12312;53.362;-1.518;2023-01-25T10:29:55;100621.84;;;8.15;100.00
24154;BME280;12312;53.362;-1.518;2023-01-25T10:32:27;100620.00;;;8.17;100.00
24154;BME280;12312;53.362;-1.518;2023-01-25T10:35:01;100620.16;;;8.13;100.00
24154;BME280;12312;53.362;-1.518;2023-01-25T10:37:37;100628.81;;;8.18;100.00
24154;BME280;12312;53.362;-1.518;2023-01-25T10:40:23;100637.78;;;8.15;100.00
24154;BME280;12312;53.362;-1.518;2023-01-25T10:43:19;100633.00;;;8.25;100.00
24154;BME280;12312;53.362;-1.518;2023-01-25T10:45:48;100617.47;;;8.14;100.00
24154;BME280;12312;53.362;-1.518;2023-01-25T10:48:35;100615.63;;;8.16;100.00
24154;BME280;12312;53.362;-1.518;2023-01-25T10:51:01;100606.44;;;8.03;100.00
24154;BME280;12312;53.362;-1.518;2023-01-25T10:56:16;100591.06;;;8.11;100.00
24154;BME280;12312;53.362;-1.518;2023-01-25T10:58:47;100596.78;;;8.24;100.00
24154;BME280;12312;53.362;-1.518;2023-01-25T11:01:32;100605.94;;;8.15;100.00
24154;BME280;12312;53.362;-1.518;2023-01-25T11:04:00;100584.91;;;7.89;100.00
24154;BME280;12312;53.362;-1.518;2023-01-25T11:06:30;100579.75;;;7.86;100.00
24154;BME280;12312;53.362;-1.518;2023-01-25T11:08:59;100577.09;;;7.86;100.00
24154;BME280;12312;53.362;-1.518;2023-01-25T11:11:35;100589.66;;;7.81;100.00
24154;BME280;12312;53.362;-1.518;2023-01-25T11:14:24;100576.47;;;7.80;100.00
24154;BME280;12312;53.362;-1.518;2023-01-25T11:16:51;100576.53;;;7.78;100.00
24154;BME280;12312;53.362;-1.518;2023-01-25T11:19:39;100563.91;;;7.85;100.00
24154;BME280;12312;53.362;-1.518;2023-01-25T11:24:43;100586.47;;;7.73;100.00
24154;BME280;12312;53.362;-1.518;2023-01-25T11:27:15;100572.75;;;7.62;100.00
24154;BME280;12312;53.362;-1.518;2023-01-25T11:29:42;100571.25;;;7.55;100.00
24154;BME280;12312;53.362;-1.518;2023-01-25T11:32:17;100564.34;;;7.51;100.00
24154;BME280;12312;53.362;-1.518;2023-01-25T11:34:50;100547.81;;;7.45;100.00
24154;BME280;12312;53.362;-1.518;2023-01-25T11:37:47;100559.06;;;7.51;100.00
24154;BME280;12312;53.362;-1.518;2023-01-25T11:46:58;100536.50;;;7.41;100.00
24154;BME280;12312;53.362;-1.518;2023-01-25T11:55:45;100513.09;;;7.52;100.00
24154;BME280;12312;53.362;-1.518;2023-01-25T12:17:39;100491.19;;;7.49;100.00
24154;BME280;12312;53.362;-1.518;2023-01-25T12:28:52;100511.47;;;7.26;100.00
24154;BME280;12312;53.362;-1.518;2023-01-25T12:31:34;100500.88;;;7.26;100.00
24154;BME280;12312;53.362;-1.518;2023-01-25T12:34:04;100489.72;;;7.18;100.00
24154;BME280;12312;53.362;-1.518;2023-01-25T12:36:38;100494.28;;;7.15;100.00
24154;BME280;12312;53.362;-1.518;2023-01-25T12:39:25;100484.47;;;7.17;100.00
24154;BME280;12312;53.362;-1.518;2023-01-25T12:42:05;100477.59;;;7.13;100.00
24154;BME280;12312;53.362;-1.518;2023-01-25T12:44:45;100488.69;;;7.22;100.00
24154;BME280;12312;53.362;-1.518;2023-01-25T12:47:29;100465.63;;;7.26;100.00
24154;BME280;12312;53.362;-1.518;2023-01-25T12:52:46;100470.31;;;7.41;100.00
24154;BME280;12312;53.362;-1.518;2023-01-25T12:55:15;100480.16;;;7.38;100.00
24154;BME280;12312;53.362;-1.518;2023-01-25T12:57:55;100473.06;;;7.38;100.00
24154;BME280;12312;53.362;-1.518;2023-01-25T13:11:46;100470.91;;;7.26;100.00
24154;BME280;12312;53.362;-1.518;2023-01-25T13:16:49;100448.22;;;7.19;100.00
24154;BME280;12312;53.362;-1.518;2023-01-25T13:21:55;100427.94;;;7.41;100.00
24154;BME280;12312;53.362;-1.518;2023-01-25T13:24:30;100430.66;;;7.81;100.00
24154;BME280;12312;53.362;-1.518;2023-01-25T13:26:58;100443.59;;;7.67;100.00
24154;BME280;12312;53.362;-1.518;2023-01-25T13:37:23;100443.72;;;7.64;100.00
24154;BME280;12312;53.362;-1.518;2023-01-25T13:43:01;100433.44;;;7.57;100.00
24154;BME280;12312;53.362;-1.518;2023-01-25T13:45:29;100422.78;;;7.58;100.00
24154;BME280;12312;53.362;-1.518;2023-01-25T13:50:41;100417.50;;;7.58;100.00
24154;BME280;12312;53.362;-1.518;2023-01-25T13:55:45;100422.66;;;7.61;100.00
24154;BME280;12312;53.362;-1.518;2023-01-25T13:58:29;100408.66;;;7.59;100.00
24154;BME280;12312;53.362;-1.518;2023-01-25T14:01:16;100405.19;;;7.57;100.00
24154;BME280;12312;53.362;-1.518;2023-01-25T14:03:46;100419.50;;;7.53;100.00
24154;BME280;12312;53.362;-1.518;2023-01-25T14:06:16;100412.44;;;7.52;100.00
24154;BME280;12312;53.362;-1.518;2023-01-25T14:08:44;100424.91;;;7.50;100.00
24154;BME280;12312;53.362;-1.518;2023-01-25T14:11:22;100411.28;;;7.59;100.00
24154;BME280;12312;53.362;-1.518;2023-01-25T14:13:56;100403.47;;;7.56;100.00
24154;BME280;12312;53.362;-1.518;2023-01-25T14:16:22;100398.31;;;7.53;100.00
24154;BME280;12312;53.362;-1.518;2023-01-25T14:18:48;100390.22;;;7.56;100.00
24154;BME280;12312;53.362;-1.518;2023-01-25T14:21:19;100385.59;;;7.61;100.00
24154;BME280;12312;53.362;-1.518;2023-01-25T14:23:46;100382.88;;;7.63;100.00
24154;BME280;12312;53.362;-1.518;2023-01-25T14:26:24;100383.59;;;7.66;100.00
24154;BME280;12312;53.362;-1.518;2023-01-25T14:28:58;100395.81;;;7.70;100.00
24154;BME280;12312;53.362;-1.518;2023-01-25T14:31:27;100388.78;;;7.69;100.00
24154;BME280;12312;53.362;-1.518;2023-01-25T14:33:56;100396.41;;;7.77;100.00
24154;BME280;12312;53.362;-1.518;2023-01-25T14:36:28;100403.56;;;7.75;100.00
24154;BME280;12312;53.362;-1.518;2023-01-25T14:38:56;100393.81;;;7.75;100.00
24154;BME280;12312;53.362;-1.518;2023-01-25T14:44:01;100384.03;;;7.77;100.00
24154;BME280;12312;53.362;-1.518;2023-01-25T14:46:33;100366.53;;;7.73;100.00